Time;durP1;ratioP1;P1;durP2;ratioP2;P2;SDS_P1;SDS_P2;PMS_P1;PMS_P2;Temp;Humidity;BMP_temperature;BMP_pressure;BME280_temperature;BME280_humidity;BME280_pressure;Samples;Min_cycle;Max_cycle;Signal;HPM_P1;HPM_P2
2021/01/17 00:00:07;;;;;;;38.70;24.40;;;5.60;63.60;;;;;;5076713;28;20041;-52
2021/01/17 00:02:33;;;;;;;37.27;24.53;;;5.70;63.50;;;;;;5083954;28;20051;-55
2021/01/17 00:04:58;;;;;;;33.27;26.37;;;5.60;63.80;;;;;;5080033;28;20401;-54
2021/01/17 00:07:27;;;;;;;34.97;24.73;;;5.60;63.30;;;;;;5069452;28;20044;-54
2021/01/17 00:09:53;;;;;;;37.70;24.87;;;5.50;63.70;;;;;;5071225;28;20378;-55
2021/01/17 00:12:19;;;;;;;35.03;25.07;;;5.50;63.80;;;;;;5081980;28;20032;-55
2021/01/17 00:14:44;;;;;;;35.20;25.87;;;5.40;64.50;;;;;;5077032;28;20036;-53
2021/01/17 00:17:10;;;;;;;35.53;24.80;;;5.40;64.20;;;;;;5081270;28;20055;-51
2021/01/17 00:19:35;;;;;;;37.70;26.33;;;5.40;64.10;;;;;;5079002;28;20037;-55
2021/01/17 00:22:01;;;;;;;33.90;25.07;;;5.50;64.30;;;;;;5081566;28;20047;-55
2021/01/17 00:24:27;;;;;;;35.50;25.67;;;5.50;64.00;;;;;;5076721;28;20493;-53
2021/01/17 00:26:52;;;;;;;36.07;26.07;;;5.60;64.00;;;;;;5081162;28;20044;-53
2021/01/17 00:29:18;;;;;;;36.90;26.30;;;5.50;63.80;;;;;;5075149;28;20393;-55
2021/01/17 00:31:44;;;;;;;33.60;25.63;;;5.40;63.90;;;;;;5082226;28;20091;-55
2021/01/17 00:34:09;;;;;;;35.03;25.73;;;5.50;63.80;;;;;;5065377;28;20111;-56
2021/01/17 00:36:39;;;;;;;35.73;25.20;;;5.40;63.80;;;;;;5071377;28;20511;-58
2021/01/17 00:39:08;;;;;;;36.30;26.43;;;5.40;64.50;;;;;;5057451;28;20028;-55
2021/01/17 00:41:35;;;;;;;39.90;27.73;;;5.50;64.10;;;;;;5072292;28;20055;-53
2021/01/17 00:44:01;;;;;;;32.37;25.13;;;5.50;64.70;;;;;;5086008;28;20115;-54
2021/01/17 00:46:35;;;;;;;36.13;26.27;;;5.50;64.30;;;;;;5075801;28;20058;-55
2021/01/17 00:49:01;;;;;;;35.28;25.67;;;5.50;64.40;;;;;;5069698;28;20040;-54
2021/01/17 00:51:35;;;;;;;33.37;25.43;;;5.40;64.20;;;;;;5058730;28;20047;-55
2021/01/17 00:54:00;;;;;;;35.43;25.73;;;5.50;64.60;;;;;;5077604;28;20048;-52
2021/01/17 00:56:26;;;;;;;35.83;25.70;;;5.50;64.10;;;;;;5075759;28;20136;-55
2021/01/17 00:58:51;;;;;;;33.53;25.50;;;5.50;63.80;;;;;;5079630;28;20390;-52
2021/01/17 01:01:17;;;;;;;33.53;24.93;;;5.60;64.50;;;;;;5060917;28;20038;-54
2021/01/17 01:03:43;;;;;;;36.43;25.60;;;5.60;64.10;;;;;;5067176;28;20127;-54
2021/01/17 01:06:19;;;;;;;35.07;24.20;;;5.70;64.30;;;;;;5071665;28;20094;-51
2021/01/17 01:08:46;;;;;;;35.20;24.53;;;5.80;64.20;;;;;;5074315;28;20046;-55
2021/01/17 01:11:21;;;;;;;32.63;24.03;;;5.70;63.50;;;;;;5078446;28;20059;-55
2021/01/17 01:13:48;;;;;;;38.83;25.27;;;5.80;63.20;;;;;;5081576;28;20085;-56
2021/01/17 01:16:15;;;;;;;31.87;23.87;;;5.80;63.50;;;;;;5079032;28;20036;-52
2021/01/17 01:18:41;;;;;;;33.33;23.70;;;5.80;63.70;;;;;;5070583;28;20063;-52
2021/01/17 01:21:07;;;;;;;30.03;22.90;;;5.70;64.70;;;;;;5085551;28;20068;-55
2021/01/17 01:23:33;;;;;;;31.60;24.63;;;5.70;64.80;;;;;;5082025;28;20505;-54
2021/01/17 01:25:59;;;;;;;33.53;23.03;;;5.60;65.40;;;;;;5081186;28;20055;-55
2021/01/17 01:28:24;;;;;;;30.63;23.37;;;5.60;66.30;;;;;;5071061;28;20081;-55
2021/01/17 01:30:52;;;;;;;31.43;23.53;;;5.40;66.40;;;;;;5076199;28;20044;-55
2021/01/17 01:33:17;;;;;;;33.57;24.17;;;5.50;67.00;;;;;;5075370;28;20082;-55
2021/01/17 01:35:43;;;;;;;33.83;23.30;;;5.50;66.90;;;;;;5071987;28;20385;-57
2021/01/17 01:38:09;;;;;;;31.33;22.70;;;5.50;67.30;;;;;;5074887;28;20347;-52
2021/01/17 01:40:35;;;;;;;30.97;24.57;;;5.50;67.20;;;;;;5085428;28;20115;-60
2021/01/17 01:43:00;;;;;;;30.23;22.33;;;5.50;67.20;;;;;;5079387;28;20059;-53
2021/01/17 01:45:26;;;;;;;28.53;22.53;;;5.50;67.50;;;;;;5077088;28;20502;-55
2021/01/17 01:47:52;;;;;;;26.97;21.77;;;5.50;67.80;;;;;;5071831;28;20040;-55
2021/01/17 01:50:18;;;;;;;30.20;22.90;;;5.60;67.60;;;;;;5083416;28;20490;-51
2021/01/17 01:52:45;;;;;;;33.57;23.57;;;5.60;67.20;;;;;;5075955;28;20127;-54
2021/01/17 01:55:12;;;;;;;33.40;24.23;;;5.70;67.20;;;;;;5081960;28;20120;-56
2021/01/17 01:57:38;;;;;;;33.07;23.10;;;5.60;67.20;;;;;;5079043;28;20032;-56
2021/01/17 02:00:05;;;;;;;30.10;21.47;;;5.70;67.00;;;;;;5082695;28;20032;-53
2021/01/17 02:02:44;;;;;;;32.03;23.90;;;5.70;66.90;;;;;;5065996;28;20160;-52
2021/01/17 02:05:10;;;;;;;31.20;22.70;;;5.80;66.60;;;;;;5075468;28;20071;-53
2021/01/17 02:08:06;;;;;;;31.07;21.73;;;5.70;67.40;;;;;;5074589;28;20077;-55
2021/01/17 02:10:32;;;;;;;32.33;23.50;;;5.70;67.30;;;;;;5073353;28;20512;-55
2021/01/17 02:13:18;;;;;;;32.30;24.10;;;5.60;67.20;;;;;;5077123;28;20032;-52
2021/01/17 02:15:45;;;;;;;29.57;23.47;;;5.60;66.60;;;;;;5049364;28;20036;-53
2021/01/17 02:18:14;;;;;;;29.87;22.17;;;5.50;67.30;;;;;;5079203;28;20461;-56
2021/01/17 02:20:40;;;;;;;33.23;23.20;;;5.50;67.40;;;;;;5053194;28;20032;-55
2021/01/17 02:23:16;;;;;;;28.37;22.90;;;5.50;67.50;;;;;;5071723;28;20040;-56
2021/01/17 02:25:42;;;;;;;31.03;22.27;;;5.40;67.20;;;;;;5075085;28;20032;-56
2021/01/17 02:28:10;;;;;;;31.67;23.37;;;5.40;67.40;;;;;;5072649;28;20127;-52
2021/01/17 02:30:39;;;;;;;30.40;22.17;;;5.50;67.30;;;;;;5074600;28;20048;-57
2021/01/17 02:33:16;;;;;;;31.40;22.97;;;5.60;67.70;;;;;;5080691;28;20042;-53
2021/01/17 02:35:43;;;;;;;33.73;23.73;;;5.40;66.90;;;;;;5023369;28;20067;-54
2021/01/17 02:38:46;;;;;;;30.00;22.57;;;5.60;67.60;;;;;;5077029;28;20028;-53
2021/01/17 02:41:43;;;;;;;30.70;22.00;;;5.70;67.40;;;;;;5046895;28;20401;-57
2021/01/17 02:44:08;;;;;;;36.50;24.90;;;5.70;67.40;;;;;;5046221;28;20107;-55
2021/01/17 02:46:34;;;;;;;34.77;23.93;;;5.70;67.10;;;;;;5074377;28;20047;-55
2021/01/17 02:49:00;;;;;;;30.80;24.17;;;5.70;66.80;;;;;;5080349;28;20048;-54
2021/01/17 02:51:26;;;;;;;28.60;22.60;;;5.70;66.70;;;;;;5056014;28;20054;-56
2021/01/17 02:54:09;;;;;;;39.10;24.63;;;5.80;67.10;;;;;;5077465;28;20033;-54
2021/01/17 02:56:40;;;;;;;36.33;27.37;;;5.80;66.30;;;;;;5076161;28;20055;-56
2021/01/17 02:59:11;;;;;;;41.70;29.53;;;5.80;66.30;;;;;;5076010;28;20050;-54
2021/01/17 03:01:38;;;;;;;37.40;28.60;;;5.80;66.60;;;;;;5071729;28;20045;-54
2021/01/17 03:04:20;;;;;;;34.13;26.67;;;5.70;67.00;;;;;;5078344;28;20040;-55
2021/01/17 03:06:46;;;;;;;39.57;29.63;;;5.70;66.40;;;;;;5024752;28;20117;-56
2021/01/17 03:09:13;;;;;;;33.73;25.03;;;5.70;66.40;;;;;;5072863;28;20482;-54
2021/01/17 03:11:38;;;;;;;35.40;25.03;;;5.80;66.30;;;;;;5075594;28;20052;-55
2021/01/17 03:14:06;;;;;;;34.07;25.57;;;5.80;65.50;;;;;;5079637;28;20402;-55
2021/01/17 03:16:33;;;;;;;36.53;24.97;;;5.80;66.00;;;;;;5074821;28;20036;-55
2021/01/17 03:18:58;;;;;;;30.83;23.57;;;5.80;65.90;;;;;;5076514;28;20031;-52
2021/01/17 03:21:24;;;;;;;32.87;24.83;;;5.90;66.10;;;;;;5076454;28;20036;-54
2021/01/17 03:23:50;;;;;;;33.37;26.40;;;5.80;66.30;;;;;;5046749;28;20043;-56
2021/01/17 03:26:15;;;;;;;36.70;26.60;;;5.90;66.40;;;;;;5068064;28;20028;-56
2021/01/17 03:28:41;;;;;;;37.90;28.20;;;5.90;66.60;;;;;;5074557;28;20107;-54
2021/01/17 03:31:07;;;;;;;38.23;30.17;;;5.90;66.70;;;;;;5072623;28;20032;-55
2021/01/17 03:33:32;;;;;;;39.80;29.07;;;5.80;66.20;;;;;;5083138;28;20044;-56
2021/01/17 03:35:58;;;;;;;38.10;27.07;;;5.90;66.10;;;;;;5078231;28;20095;-51
2021/01/17 03:38:23;;;;;;;42.50;27.10;;;5.90;65.90;;;;;;5075323;28;20036;-54
2021/01/17 03:40:49;;;;;;;32.43;24.20;;;6.00;66.90;;;;;;5078845;28;20032;-55
2021/01/17 03:43:15;;;;;;;34.03;25.63;;;6.00;66.10;;;;;;5078822;28;20036;-52
2021/01/17 03:45:40;;;;;;;36.60;25.87;;;6.00;65.90;;;;;;5083711;28;20048;-54
2021/01/17 03:48:06;;;;;;;35.77;26.47;;;6.00;65.80;;;;;;5076651;28;20032;-55
2021/01/17 03:50:32;;;;;;;36.37;26.63;;;5.90;65.00;;;;;;5078188;28;20033;-56
2021/01/17 03:59:57;;;;;;;39.67;27.37;;;5.90;65.30;;;;;;5029035;28;20032;-55
2021/01/17 04:02:23;;;;;;;35.37;27.17;;;5.90;64.70;;;;;;5066154;28;20049;-55
2021/01/17 04:04:48;;;;;;;34.80;26.77;;;5.80;65.80;;;;;;5080567;28;20047;-54
2021/01/17 04:07:14;;;;;;;33.70;24.63;;;5.90;65.50;;;;;;5074903;28;20028;-55
2021/01/17 04:09:40;;;;;;;30.53;23.60;;;5.80;65.70;;;;;;5074303;28;20028;-56
2021/01/17 04:12:06;;;;;;;32.27;22.87;;;5.80;65.70;;;;;;5081312;28;20059;-56
2021/01/17 04:14:32;;;;;;;28.83;22.20;;;5.70;65.50;;;;;;5059857;28;20036;-56
2021/01/17 04:16:57;;;;;;;32.10;23.33;;;5.80;65.20;;;;;;5076670;28;20115;-56
2021/01/17 04:19:23;;;;;;;29.17;21.83;;;5.80;65.10;;;;;;5072481;28;20049;-54
2021/01/17 04:21:49;;;;;;;30.10;22.27;;;5.80;65.30;;;;;;5082359;28;20468;-56
2021/01/17 04:24:15;;;;;;;31.50;22.70;;;5.80;65.40;;;;;;5079836;28;20059;-52
2021/01/17 04:26:41;;;;;;;26.07;21.10;;;5.80;65.90;;;;;;5061957;28;20079;-56
2021/01/17 04:29:06;;;;;;;26.73;21.97;;;5.80;66.10;;;;;;5079841;28;20064;-59
2021/01/17 04:31:43;;;;;;;26.87;21.33;;;5.60;65.70;;;;;;5077647;28;20506;-54
2021/01/17 04:34:08;;;;;;;28.13;21.97;;;5.60;65.80;;;;;;5076520;28;20081;-56
2021/01/17 04:36:34;;;;;;;29.30;22.73;;;5.50;67.20;;;;;;5084799;28;20106;-56
2021/01/17 04:39:00;;;;;;;28.70;22.13;;;5.50;66.70;;;;;;5080930;28;20127;-54
2021/01/17 04:41:29;;;;;;;31.97;22.10;;;5.50;66.70;;;;;;5080874;28;20132;-56
2021/01/17 04:43:57;;;;;;;28.83;22.10;;;5.40;66.60;;;;;;5080940;28;20066;-53
2021/01/17 04:46:27;;;;;;;28.17;22.57;;;5.50;66.80;;;;;;5083188;28;20486;-56
2021/01/17 04:49:01;;;;;;;28.67;21.50;;;5.50;66.30;;;;;;5080183;28;20055;-55
2021/01/17 04:51:28;;;;;;;26.80;21.13;;;5.60;66.40;;;;;;5072822;28;20131;-54
2021/01/17 04:53:57;;;;;;;30.57;21.57;;;5.60;66.50;;;;;;5076329;28;20033;-51
2021/01/17 04:56:28;;;;;;;30.17;21.80;;;5.60;65.70;;;;;;5071683;28;20059;-51
2021/01/17 04:59:14;;;;;;;31.63;22.73;;;5.60;65.70;;;;;;5082834;28;20060;-56
2021/01/17 05:01:46;;;;;;;28.30;22.07;;;5.50;65.60;;;;;;5075894;28;20056;-55
2021/01/17 05:04:36;;;;;;;28.30;20.83;;;5.40;66.10;;;;;;5074412;28;20040;-53
2021/01/17 05:07:29;;;;;;;26.23;21.30;;;5.40;67.00;;;;;;5079927;28;20043;-54
2021/01/17 05:10:02;;;;;;;28.47;20.93;;;5.30;66.40;;;;;;5027980;28;20052;-55
2021/01/17 05:12:40;;;;;;;32.17;23.00;;;5.20;66.70;;;;;;5074306;28;20040;-56
2021/01/17 05:15:08;;;;;;;30.50;22.37;;;5.20;66.80;;;;;;5086912;28;20028;-56
2021/01/17 05:17:39;;;;;;;27.33;22.63;;;5.10;66.40;;;;;;5075997;28;20044;-56
2021/01/17 05:20:07;;;;;;;30.00;22.70;;;5.10;67.00;;;;;;5081088;28;20036;-58
2021/01/17 05:22:34;;;;;;;34.60;23.20;;;5.20;67.20;;;;;;5073547;28;20401;-52
2021/01/17 05:25:05;;;;;;;30.37;22.80;;;5.10;67.30;;;;;;5084574;28;20177;-53
2021/01/17 05:27:31;;;;;;;28.90;21.90;;;5.10;67.40;;;;;;5062463;28;20043;-53
2021/01/17 05:29:57;;;;;;;31.13;22.73;;;5.10;67.90;;;;;;5071837;28;20033;-53
2021/01/17 05:32:23;;;;;;;31.57;23.30;;;5.10;67.80;;;;;;5076289;28;20040;-57
2021/01/17 05:34:51;;;;;;;30.23;24.07;;;5.10;68.10;;;;;;5082565;28;20678;-53
2021/01/17 05:37:17;;;;;;;30.77;22.30;;;5.10;68.20;;;;;;5069274;28;20032;-52
2021/01/17 05:40:03;;;;;;;28.53;22.53;;;5.10;68.30;;;;;;5078024;28;20035;-54
2021/01/17 05:42:31;;;;;;;28.30;21.83;;;5.20;68.30;;;;;;5071535;28;20049;-56
2021/01/17 05:45:20;;;;;;;29.83;22.30;;;5.10;68.10;;;;;;5079810;28;20496;-56
2021/01/17 05:48:01;;;;;;;33.40;23.60;;;5.20;67.90;;;;;;5025775;28;20040;-56
2021/01/17 05:50:28;;;;;;;29.20;22.23;;;5.30;68.30;;;;;;5079404;28;20048;-52
2021/01/17 05:53:05;;;;;;;29.00;22.40;;;5.30;67.80;;;;;;5075874;28;20047;-51
2021/01/17 05:55:32;;;;;;;28.23;23.27;;;5.30;67.90;;;;;;5072472;28;20059;-53
2021/01/17 05:58:31;;;;;;;27.33;21.80;;;5.30;67.40;;;;;;5072020;28;20040;-54
2021/01/17 06:00:59;;;;;;;29.00;21.83;;;5.30;67.80;;;;;;5050842;28;20097;-54
2021/01/17 06:03:34;;;;;;;27.27;22.30;;;5.30;67.00;;;;;;5077468;28;20040;-54
2021/01/17 06:06:05;;;;;;;31.37;22.87;;;5.20;66.70;;;;;;5080394;28;20051;-54
2021/01/17 06:08:31;;;;;;;29.07;21.43;;;5.20;67.40;;;;;;5077663;28;20087;-53
2021/01/17 06:11:08;;;;;;;32.50;24.23;;;5.30;66.80;;;;;;5082178;28;20039;-52
2021/01/17 06:13:36;;;;;;;32.30;23.60;;;5.30;66.90;;;;;;5076002;28;20028;-53
2021/01/17 06:16:02;;;;;;;30.70;22.93;;;5.30;66.60;;;;;;5078489;28;20037;-52
2021/01/17 06:18:30;;;;;;;34.03;23.93;;;5.30;66.50;;;;;;5076470;28;20121;-55
2021/01/17 06:20:57;;;;;;;33.97;23.10;;;5.30;66.30;;;;;;5079867;28;20043;-54
2021/01/17 06:23:24;;;;;;;30.53;23.13;;;5.30;66.40;;;;;;5073124;28;20135;-55
2021/01/17 06:26:05;;;;;;;32.53;22.90;;;5.20;66.60;;;;;;5060135;28;20106;-57
2021/01/17 06:28:39;;;;;;;32.40;24.17;;;5.30;67.70;;;;;;5073078;28;20134;-55
2021/01/17 06:31:07;;;;;;;31.40;24.93;;;5.20;66.60;;;;;;5079847;28;20041;-53
2021/01/17 06:33:33;;;;;;;34.93;24.73;;;5.20;66.90;;;;;;5070121;28;20148;-56
2021/01/17 06:36:16;;;;;;;33.80;25.63;;;5.30;67.10;;;;;;5053995;28;20509;-56
2021/01/17 06:38:43;;;;;;;35.00;24.67;;;5.30;66.80;;;;;;5061469;28;20427;-57
2021/01/17 06:41:09;;;;;;;32.97;24.87;;;5.30;66.90;;;;;;5079615;28;20040;-55
2021/01/17 06:43:41;;;;;;;34.77;25.00;;;5.20;66.90;;;;;;5075194;28;20439;-57
2021/01/17 06:46:07;;;;;;;35.30;25.87;;;5.30;67.10;;;;;;5077764;28;20489;-55
2021/01/17 06:48:33;;;;;;;33.17;24.87;;;5.20;66.70;;;;;;5069207;28;20062;-56
2021/01/17 06:51:20;;;;;;;35.73;25.57;;;5.20;66.70;;;;;;5071481;28;20478;-55
2021/01/17 06:53:56;;;;;;;37.93;26.30;;;5.30;67.40;;;;;;5029226;28;20028;-56
2021/01/17 06:56:22;;;;;;;42.53;27.30;;;5.10;67.70;;;;;;5075568;28;20036;-56
2021/01/17 06:58:51;;;;;;;34.43;26.07;;;5.10;68.00;;;;;;5082195;28;20032;-54
2021/01/17 07:01:28;;;;;;;38.37;26.17;;;5.10;68.00;;;;;;5067386;28;20060;-56
2021/01/17 07:04:09;;;;;;;37.30;26.77;;;5.00;68.20;;;;;;5075670;28;20048;-56
2021/01/17 07:06:49;;;;;;;37.47;26.80;;;5.00;68.60;;;;;;5068370;28;20535;-58
2021/01/17 07:09:31;;;;;;;33.97;25.40;;;5.00;68.30;;;;;;5053131;28;20056;-55
2021/01/17 07:12:04;;;;;;;34.77;26.60;;;5.00;67.90;;;;;;5080579;28;20032;-53
2021/01/17 07:14:30;;;;;;;37.07;27.87;;;5.00;68.20;;;;;;5074613;28;20042;-55
2021/01/17 07:16:59;;;;;;;33.40;25.77;;;4.90;68.20;;;;;;5067511;28;20052;-55
2021/01/17 07:19:32;;;;;;;35.80;24.87;;;4.90;68.40;;;;;;5077429;28;20401;-55
2021/01/17 07:22:03;;;;;;;36.03;26.37;;;4.90;68.90;;;;;;5071311;28;20996;-57
2021/01/17 07:24:30;;;;;;;37.13;27.23;;;4.90;69.10;;;;;;5073540;28;20491;-57
2021/01/17 07:26:59;;;;;;;36.20;27.33;;;4.80;68.70;;;;;;5072513;28;20040;-53
2021/01/17 07:29:27;;;;;;;40.17;27.67;;;4.90;69.00;;;;;;5077159;28;20048;-55
2021/01/17 07:31:55;;;;;;;40.37;28.83;;;4.90;69.70;;;;;;5066529;28;20075;-56
2021/01/17 07:34:22;;;;;;;34.60;26.93;;;4.90;69.70;;;;;;5074154;28;20469;-53
2021/01/17 07:36:49;;;;;;;42.50;29.23;;;4.90;70.20;;;;;;5076122;28;20088;-55
2021/01/17 07:39:24;;;;;;;38.33;29.53;;;4.90;69.70;;;;;;5071929;28;20401;-52
2021/01/17 07:41:50;;;;;;;40.53;27.85;;;4.90;70.20;;;;;;5045340;28;20044;-53
2021/01/17 07:44:20;;;;;;;38.40;30.13;;;4.90;71.00;;;;;;5075999;28;20063;-54
2021/01/17 07:46:46;;;;;;;41.10;30.13;;;4.90;71.30;;;;;;5046518;28;20444;-55
2021/01/17 07:49:14;;;;;;;40.80;29.67;;;4.90;71.20;;;;;;5073921;28;20436;-53
2021/01/17 07:51:41;;;;;;;37.33;29.80;;;4.90;71.40;;;;;;5073628;28;20067;-55
2021/01/17 07:54:22;;;;;;;40.50;29.50;;;4.90;71.80;;;;;;5071959;28;20036;-55
2021/01/17 07:56:49;;;;;;;37.33;29.53;;;5.00;71.90;;;;;;5039404;28;20059;-56
2021/01/17 07:59:26;;;;;;;39.57;31.03;;;4.90;72.60;;;;;;5071751;28;20028;-55
2021/01/17 08:01:52;;;;;;;45.63;31.23;;;4.90;72.40;;;;;;5072433;28;20044;-55
2021/01/17 08:04:18;;;;;;;41.87;32.17;;;4.90;72.80;;;;;;5077564;28;20043;-56
2021/01/17 08:06:47;;;;;;;44.83;32.03;;;4.80;72.60;;;;;;5075859;28;20032;-57
2021/01/17 08:09:15;;;;;;;48.97;34.50;;;4.80;72.90;;;;;;5062025;28;20040;-55
2021/01/17 08:11:57;;;;;;;41.17;32.57;;;4.80;73.10;;;;;;5065110;28;20422;-55
2021/01/17 08:14:34;;;;;;;43.50;31.77;;;4.80;73.10;;;;;;5075159;28;20035;-55
2021/01/17 08:17:04;;;;;;;44.10;32.10;;;4.80;73.50;;;;;;5081008;28;20090;-56
2021/01/17 08:19:56;;;;;;;44.70;32.57;;;4.80;73.70;;;;;;5080158;28;20036;-54
2021/01/17 08:22:22;;;;;;;43.50;31.37;;;4.70;73.80;;;;;;5045809;28;20040;-56
2021/01/17 08:24:54;;;;;;;43.67;34.07;;;4.80;74.50;;;;;;5074755;28;20035;-55
2021/01/17 08:27:35;;;;;;;43.73;32.63;;;4.80;73.40;;;;;;5061680;28;20391;-56
2021/01/17 08:30:00;;;;;;;40.87;30.33;;;4.80;73.60;;;;;;5066788;28;20040;-54
2021/01/17 08:32:40;;;;;;;37.10;29.97;;;4.80;73.20;;;;;;5078573;28;20428;-55
2021/01/17 08:35:15;;;;;;;41.57;29.83;;;4.80;72.30;;;;;;5075662;28;20028;-54
2021/01/17 08:38:11;;;;;;;41.07;30.70;;;4.70;71.80;;;;;;5075047;28;20501;-55
2021/01/17 08:40:36;;;;;;;37.00;28.83;;;4.80;72.30;;;;;;5080523;28;20074;-53
2021/01/17 08:43:06;;;;;;;36.13;28.33;;;4.80;72.20;;;;;;5073389;28;20053;-55
2021/01/17 08:45:53;;;;;;;42.57;30.00;;;4.80;71.80;;;;;;5073355;28;20050;-55
2021/01/17 08:48:21;;;;;;;39.90;29.10;;;4.80;72.30;;;;;;5051296;28;20504;-53
2021/01/17 08:50:57;;;;;;;41.97;29.50;;;4.80;71.70;;;;;;5078616;28;20524;-54
2021/01/17 08:53:30;;;;;;;41.03;31.23;;;4.70;72.00;;;;;;5077803;28;20039;-55
2021/01/17 08:56:05;;;;;;;40.10;30.17;;;4.70;72.60;;;;;;5071021;28;20058;-54
2021/01/17 08:58:30;;;;;;;38.38;29.70;;;4.70;71.90;;;;;;5077495;28;20039;-54
2021/01/17 09:00:56;;;;;;;42.43;31.83;;;4.70;71.80;;;;;;5075577;28;20036;-55
2021/01/17 09:03:36;;;;;;;40.67;30.17;;;4.70;71.90;;;;;;5078854;28;20090;-54
2021/01/17 09:06:03;;;;;;;43.53;30.80;;;4.80;71.80;;;;;;5068902;28;20051;-53
2021/01/17 09:08:31;;;;;;;39.40;30.23;;;4.90;71.40;;;;;;5085646;28;20047;-56
2021/01/17 09:10:57;;;;;;;38.37;30.17;;;4.80;71.10;;;;;;5073525;28;20513;-54
2021/01/17 09:13:24;;;;;;;40.00;30.77;;;4.80;71.10;;;;;;5080409;28;20044;-56
2021/01/17 09:16:03;;;;;;;41.67;30.80;;;4.80;71.10;;;;;;5078491;28;20036;-53
2021/01/17 09:18:34;;;;;;;42.93;31.30;;;4.80;71.50;;;;;;5078305;28;20120;-55
2021/01/17 09:21:00;;;;;;;45.90;32.23;;;4.90;71.30;;;;;;5059260;28;20040;-53
2021/01/17 09:23:26;;;;;;;42.03;32.37;;;4.90;71.30;;;;;;5076047;28;20123;-56
2021/01/17 09:25:57;;;;;;;44.10;32.77;;;4.90;71.30;;;;;;5077718;28;20494;-52
2021/01/17 09:28:23;;;;;;;40.93;31.80;;;4.90;71.00;;;;;;5075245;28;20082;-52
2021/01/17 09:30:54;;;;;;;41.90;32.07;;;4.90;70.80;;;;;;5071918;28;20420;-56
2021/01/17 09:33:20;;;;;;;45.37;32.13;;;5.00;71.10;;;;;;5065229;28;20037;-54
2021/01/17 09:35:47;;;;;;;43.77;31.50;;;5.10;70.70;;;;;;5049342;28;21334;-52
2021/01/17 09:38:49;;;;;;;38.87;30.53;;;5.20;70.50;;;;;;5083298;28;20040;-56
2021/01/17 09:41:23;;;;;;;38.63;29.07;;;5.30;69.80;;;;;;5045528;28;20162;-57
2021/01/17 09:43:50;;;;;;;38.13;29.50;;;5.20;69.40;;;;;;5078459;28;20053;-54
2021/01/17 09:46:21;;;;;;;42.23;31.40;;;5.30;69.60;;;;;;5076437;28;20287;-56
2021/01/17 09:48:58;;;;;;;40.90;30.33;;;5.50;69.60;;;;;;5075213;28;20548;-55
2021/01/17 09:51:25;;;;;;;40.17;32.60;;;5.50;69.20;;;;;;5072103;28;20485;-52
2021/01/17 09:53:53;;;;;;;39.47;31.67;;;5.30;69.60;;;;;;5076177;28;20040;-54
2021/01/17 09:56:19;;;;;;;42.10;31.07;;;5.30;69.50;;;;;;5061301;28;20044;-51
2021/01/17 09:58:45;;;;;;;39.30;31.30;;;5.10;70.20;;;;;;5082742;28;20123;-54
2021/01/17 10:01:17;;;;;;;39.63;30.83;;;5.20;70.30;;;;;;5078533;28;20165;-54
2021/01/17 10:03:46;;;;;;;42.10;32.97;;;5.40;69.90;;;;;;5075252;28;20049;-55
2021/01/17 10:06:11;;;;;;;42.13;34.10;;;5.40;69.90;;;;;;5074986;28;20059;-56
2021/01/17 10:08:37;;;;;;;46.50;33.20;;;5.50;69.90;;;;;;5073233;28;20032;-54
2021/01/17 10:11:03;;;;;;;47.10;35.40;;;5.70;69.90;;;;;;5068425;28;20527;-53
2021/01/17 10:13:29;;;;;;;42.60;33.80;;;5.90;69.90;;;;;;5073985;28;20040;-52
2021/01/17 10:15:54;;;;;;;43.67;34.30;;;5.80;68.60;;;;;;5074161;28;20109;-51
2021/01/17 10:18:24;;;;;;;45.43;34.20;;;6.00;68.90;;;;;;5072640;28;20414;-53
2021/01/17 10:20:56;;;;;;;44.13;33.30;;;6.10;69.00;;;;;;5079690;28;20101;-51
2021/01/17 10:23:31;;;;;;;45.27;32.57;;;6.20;68.80;;;;;;5078112;28;20051;-55
2021/01/17 10:25:57;;;;;;;43.05;32.03;;;6.20;68.10;;;;;;5084495;28;20109;-53
2021/01/17 10:28:26;;;;;;;47.67;32.60;;;6.20;67.60;;;;;;5070579;28;20119;-56
2021/01/17 10:30:59;;;;;;;41.83;33.57;;;6.30;67.60;;;;;;5080588;28;20059;-53
2021/01/17 10:33:29;;;;;;;46.03;33.13;;;6.40;68.20;;;;;;5077713;28;20077;-54
2021/01/17 10:35:55;;;;;;;42.80;32.70;;;6.50;67.60;;;;;;5077645;28;20028;-53
2021/01/17 10:38:20;;;;;;;44.07;33.07;;;6.70;66.30;;;;;;5067172;28;20039;-55
2021/01/17 10:40:47;;;;;;;39.27;32.30;;;6.90;65.60;;;;;;5075548;28;20028;-56
2021/01/17 10:43:15;;;;;;;45.27;33.33;;;6.80;65.10;;;;;;5073085;28;20056;-56
2021/01/17 10:45:51;;;;;;;38.10;31.67;;;6.70;65.10;;;;;;5082839;28;20052;-53
2021/01/17 10:48:16;;;;;;;42.93;33.27;;;6.60;65.80;;;;;;5073685;28;20032;-54
2021/01/17 10:50:48;;;;;;;38.20;32.47;;;6.50;65.70;;;;;;5077252;28;20494;-53
2021/01/17 10:53:15;;;;;;;37.87;30.47;;;6.50;65.60;;;;;;5078530;28;20063;-56
2021/01/17 10:55:45;;;;;;;39.57;30.73;;;6.30;65.30;;;;;;5078673;28;20040;-52
2021/01/17 10:58:18;;;;;;;40.70;32.47;;;6.30;66.20;;;;;;5078130;28;20036;-54
2021/01/17 11:00:51;;;;;;;42.47;32.57;;;6.40;65.90;;;;;;5076718;28;20062;-56
2021/01/17 11:03:44;;;;;;;44.63;32.60;;;6.50;66.30;;;;;;5076191;28;20044;-50
2021/01/17 11:06:15;;;;;;;45.23;33.73;;;6.60;65.90;;;;;;5067467;28;20040;-53
2021/01/17 11:08:47;;;;;;;43.57;33.10;;;6.40;65.80;;;;;;5077471;28;20075;-55
2021/01/17 11:11:14;;;;;;;45.40;34.03;;;6.20;66.00;;;;;;5058698;28;20035;-58
2021/01/17 11:13:40;;;;;;;44.23;33.43;;;6.20;66.30;;;;;;5077089;28;20072;-56
2021/01/17 11:16:06;;;;;;;45.83;33.40;;;6.40;66.50;;;;;;5075021;28;20067;-55
2021/01/17 11:18:33;;;;;;;42.30;32.73;;;6.50;65.70;;;;;;5071289;28;20478;-56
2021/01/17 11:21:05;;;;;;;45.10;35.67;;;6.50;65.70;;;;;;5080177;28;20960;-53
2021/01/17 11:23:32;;;;;;;44.00;35.03;;;6.50;65.90;;;;;;5067465;28;20508;-56
2021/01/17 11:25:58;;;;;;;44.43;34.20;;;6.60;66.10;;;;;;5077306;28;20075;-54
2021/01/17 11:28:26;;;;;;;47.83;36.00;;;6.60;65.20;;;;;;5082706;28;20028;-56
2021/01/17 11:30:52;;;;;;;46.77;34.93;;;6.70;65.20;;;;;;5074824;28;20040;-53
2021/01/17 11:33:17;;;;;;;43.23;34.93;;;6.90;64.80;;;;;;5073938;28;20040;-56
2021/01/17 11:35:43;;;;;;;44.47;33.93;;;6.90;65.40;;;;;;5070872;28;20037;-55
2021/01/17 11:38:09;;;;;;;44.83;34.07;;;6.90;63.90;;;;;;5077888;28;20048;-54
2021/01/17 11:40:35;;;;;;;51.07;36.13;;;7.10;64.10;;;;;;5072989;28;20469;-53
2021/01/17 11:43:05;;;;;;;51.23;35.77;;;7.00;62.80;;;;;;5075799;28;20103;-56
2021/01/17 11:45:31;;;;;;;49.70;35.83;;;7.30;63.50;;;;;;5063807;28;20063;-55
2021/01/17 11:48:00;;;;;;;43.10;33.73;;;7.20;63.00;;;;;;5079097;28;20036;-55
2021/01/17 11:50:26;;;;;;;45.93;36.20;;;7.30;62.30;;;;;;5083217;28;20134;-55
2021/01/17 11:52:59;;;;;;;44.27;34.93;;;7.20;63.60;;;;;;5078705;28;20115;-54
2021/01/17 11:55:25;;;;;;;47.70;35.80;;;7.30;63.20;;;;;;5082010;28;20039;-56
2021/01/17 11:58:06;;;;;;;43.70;34.83;;;7.20;63.70;;;;;;5074305;28;20047;-55
2021/01/17 12:00:32;;;;;;;40.50;34.07;;;7.20;63.30;;;;;;5078453;28;20045;-56
2021/01/17 12:02:58;;;;;;;46.00;35.90;;;7.10;63.40;;;;;;5077555;28;20048;-55
2021/01/17 12:05:25;;;;;;;47.13;35.43;;;7.20;63.70;;;;;;5078862;28;20045;-56
2021/01/17 12:08:00;;;;;;;47.60;36.30;;;7.10;64.00;;;;;;5081468;28;20043;-55
2021/01/17 12:10:26;;;;;;;47.43;35.50;;;7.10;64.20;;;;;;5079401;28;20040;-56
2021/01/17 12:12:53;;;;;;;48.03;35.83;;;6.90;64.90;;;;;;5075158;28;20040;-52
2021/01/17 12:15:21;;;;;;;47.07;34.67;;;6.90;65.60;;;;;;5085219;28;20134;-53
2021/01/17 12:17:47;;;;;;;43.17;34.20;;;6.80;65.20;;;;;;5075274;28;20497;-53
2021/01/17 12:20:12;;;;;;;40.97;32.57;;;6.70;64.30;;;;;;5080386;28;20123;-52
2021/01/17 12:22:38;;;;;;;40.13;32.83;;;6.70;64.50;;;;;;5080501;28;20059;-52
2021/01/17 12:25:04;;;;;;;41.93;32.03;;;6.60;62.90;;;;;;5078432;28;20036;-56
2021/01/17 12:27:30;;;;;;;40.73;33.03;;;6.70;64.10;;;;;;5075909;28;20486;-56
2021/01/17 12:29:56;;;;;;;40.33;31.67;;;6.50;64.10;;;;;;5049197;28;20047;-56
2021/01/17 12:32:22;;;;;;;45.37;33.77;;;6.60;63.40;;;;;;5064920;28;20539;-56
2021/01/17 12:34:48;;;;;;;38.83;31.10;;;6.70;64.10;;;;;;5080498;28;20044;-57
2021/01/17 12:37:13;;;;;;;39.60;32.57;;;6.70;64.10;;;;;;5069805;28;20461;-54
2021/01/17 12:39:39;;;;;;;38.87;31.13;;;6.80;63.40;;;;;;5077560;28;20449;-56
2021/01/17 12:42:05;;;;;;;38.97;31.33;;;6.90;63.70;;;;;;5077411;28;20127;-56
2021/01/17 12:44:30;;;;;;;39.97;31.77;;;6.80;63.00;;;;;;5076432;28;20111;-54
2021/01/17 12:46:56;;;;;;;41.23;31.40;;;7.00;63.30;;;;;;5059570;28;20518;-55
2021/01/17 12:49:21;;;;;;;41.77;31.63;;;7.10;62.40;;;;;;5074250;28;20085;-56
2021/01/17 12:51:47;;;;;;;43.80;30.10;;;7.20;62.30;;;;;;5076473;28;20147;-56
2021/01/17 12:54:13;;;;;;;41.13;30.40;;;7.40;61.80;;;;;;5062555;28;20044;-55